Harle — ZCTV4 — position and weather

sailwx.info

Track history (hours):
 
Tides and Currents Weather Stations Pressure Air Temp Water Temp Dewpoint Dewpoint Depression Visibility Wind Speed Wind Dir Waves Ship Positions

Harle

Last reported at 2015-Jul-30 07:13 UTC. Time now 2015-Jul-30 23:02 UTC.
Position N 41°04' E 009°32'.

Length 45 m; draft 2.7 m.

Type: Pleasure craft. MMSI: 319323000.

Date/timePositionNaut miles runAvg speedWind from/ knotsBaromVisibWave heightAir tempDewpointWater temp
2015-Jul-30 07:13N 41°04' E 009°32'0 0.0
2015-Jul-30 06:28N 41°04' E 009°32'  
2015-Jul-25 17:18N 43°42' E 007°23'2 1.9
2015-Jul-25 16:26N 43°42' E 007°21'0 0.0
2015-Jul-25 13:26N 43°42' E 007°21'2 0.8
2015-Jul-25 11:30N 43°41' E 007°21'3 0.2
2015-Jul-24 18:16N 43°42' E 007°17'2 3.5
2015-Jul-24 17:33N 43°40' E 007°16'7 6.6
2015-Jul-24 16:29N 43°35' E 007°08'0 0.0
2015-Jul-24 15:29N 43°35' E 007°08'0 0.0
2015-Jul-24 14:23N 43°35' E 007°08'0 0.0
2015-Jul-24 13:29N 43°35' E 007°08'0 0.0
2015-Jul-24 12:29N 43°35' E 007°08'0 0.0
2015-Jul-24 11:29N 43°35' E 007°08'0 0.0
2015-Jul-24 10:29N 43°35' E 007°08'0 0.0
2015-Jul-24 09:29N 43°35' E 007°08'0 0.0
2015-Jul-24 08:29N 43°35' E 007°08'3 3.6
2015-Jul-24 07:33N 43°32' E 007°08'5 0.4
2015-Jul-23 17:13N 43°33' E 007°01'3 5.1
2015-Jul-23 16:33N 43°30' E 007°04'2 1.5
2015-Jul-23 15:27N 43°32' E 007°03'0 0.0
2015-Jul-23 14:33N 43°32' E 007°03'0 0.0
2015-Jul-23 13:30N 43°32' E 007°03'0 0.0
2015-Jul-23 12:18N 43°32' E 007°03'0 0.0
2015-Jul-23 11:27N 43°32' E 007°03'0 0.0
2015-Jul-23 10:21N 43°32' E 007°03'0 0.1
2015-Jul-23 09:33N 43°32' E 007°03'2 0.1
2015-Jul-22 17:09N 43°33' E 007°01'9 1.7
2015-Jul-22 11:33N 43°25' E 006°55'1111.5
2015-Jul-22 10:34N 43°18' E 006°42'3 2.9
2015-Jul-22 09:28N 43°16' E 006°38'0 0.0
2015-Jul-22 08:19N 43°16' E 006°38'0 0.0
2015-Jul-22 07:16N 43°16' E 006°38'0 0.0
2015-Jul-22 06:28N 43°16' E 006°38'0 0.0
2015-Jul-22 04:16N 43°16' E 006°38'0 0.0
2015-Jul-22 03:28N 43°16' E 006°38'0 0.0
2015-Jul-22 02:22N 43°16' E 006°38'0 0.0
2015-Jul-22 01:28N 43°16' E 006°38'0 0.0
2015-Jul-22 00:28N 43°16' E 006°38'0 0.0
2015-Jul-21 22:22N 43°16' E 006°38'0 0.0
2015-Jul-21 21:22N 43°16' E 006°38'0 0.0
2015-Jul-21 20:25N 43°16' E 006°38'0 0.0
2015-Jul-21 19:28N 43°16' E 006°38'0 0.0
2015-Jul-21 18:20N 43°16' E 006°38'0 0.5
2015-Jul-21 17:19N 43°17' E 006°38'3 3.9
2015-Jul-21 16:33N 43°17' E 006°42'4 1.2
2015-Jul-21 13:29N 43°14' E 006°40'0 0.0
2015-Jul-21 12:32N 43°14' E 006°40'0 0.0
2015-Jul-21 10:05N 43°14' E 006°40'0 0.0
2015-Jul-21 09:29N 43°14' E 006°40'1 0.7
2015-Jul-21 08:32N 43°14' E 006°41'3 2.9
2015-Jul-21 07:32N 43°16' E 006°38'0 0.0
2015-Jul-21 06:33N 43°16' E 006°38'0 0.0
2015-Jul-21 05:24N 43°16' E 006°38'0 0.0
2015-Jul-21 04:30N 43°16' E 006°38'0 0.0
2015-Jul-21 03:33N 43°16' E 006°38'0 0.0
2015-Jul-21 02:09N 43°16' E 006°38'0 0.0
2015-Jul-21 01:30N 43°16' E 006°38'0 0.0
2015-Jul-21 00:06N 43°16' E 006°38'0 0.0
2015-Jul-20 23:18N 43°16' E 006°38'0 0.0
2015-Jul-20 22:30N 43°16' E 006°38'0 0.0
2015-Jul-20 21:30N 43°16' E 006°38'0 0.0
2015-Jul-20 20:15N 43°16' E 006°38'0 0.0
2015-Jul-20 19:30N 43°16' E 006°38'0 0.0
2015-Jul-20 18:27N 43°16' E 006°38'0 0.5
2015-Jul-20 17:33N 43°17' E 006°38'26 4.2
2015-Jul-20 11:29N 43°19' E 007°13'1511.7
2015-Jul-20 10:11N 43°33' E 007°23'  
Track history (hours):
 
Tides and Currents Weather Stations Pressure Air Temp Water Temp Dewpoint Dewpoint Depression Visibility Wind Speed Wind Dir Waves Ship Positions

Harle

Last reported at 2015-Jul-30 07:13 UTC. Time now 2015-Jul-30 23:02 UTC.
Position N 41°04' E 009°32'.

Length 45 m; draft 2.7 m.

Type: Pleasure craft. MMSI: 319323000.

Date/timePositionNaut miles runAvg speedWind from/ knotsBaromVisibWave heightAir tempDewpointWater temp
2015-Jul-30 07:13N 41°04' E 009°32'0 0.0
2015-Jul-30 06:28N 41°04' E 009°32'  
2015-Jul-25 17:18N 43°42' E 007°23'2 1.9
2015-Jul-25 16:26N 43°42' E 007°21'0 0.0
2015-Jul-25 13:26N 43°42' E 007°21'2 0.8
2015-Jul-25 11:30N 43°41' E 007°21'3 0.2
2015-Jul-24 18:16N 43°42' E 007°17'2 3.5
2015-Jul-24 17:33N 43°40' E 007°16'7 6.6
2015-Jul-24 16:29N 43°35' E 007°08'0 0.0
2015-Jul-24 15:29N 43°35' E 007°08'0 0.0
2015-Jul-24 14:23N 43°35' E 007°08'0 0.0
2015-Jul-24 13:29N 43°35' E 007°08'0 0.0
2015-Jul-24 12:29N 43°35' E 007°08'0 0.0
2015-Jul-24 11:29N 43°35' E 007°08'0 0.0
2015-Jul-24 10:29N 43°35' E 007°08'0 0.0
2015-Jul-24 09:29N 43°35' E 007°08'0 0.0
2015-Jul-24 08:29N 43°35' E 007°08'3 3.6
2015-Jul-24 07:33N 43°32' E 007°08'5 0.4
2015-Jul-23 17:13N 43°33' E 007°01'3 5.1
2015-Jul-23 16:33N 43°30' E 007°04'2 1.5
2015-Jul-23 15:27N 43°32' E 007°03'0 0.0
2015-Jul-23 14:33N 43°32' E 007°03'0 0.0
2015-Jul-23 13:30N 43°32' E 007°03'0 0.0
2015-Jul-23 12:18N 43°32' E 007°03'0 0.0
2015-Jul-23 11:27N 43°32' E 007°03'0 0.0
2015-Jul-23 10:21N 43°32' E 007°03'0 0.1
2015-Jul-23 09:33N 43°32' E 007°03'2 0.1
2015-Jul-22 17:09N 43°33' E 007°01'9 1.7
2015-Jul-22 11:33N 43°25' E 006°55'1111.5
2015-Jul-22 10:34N 43°18' E 006°42'3 2.9
2015-Jul-22 09:28N 43°16' E 006°38'0 0.0
2015-Jul-22 08:19N 43°16' E 006°38'0 0.0
2015-Jul-22 07:16N 43°16' E 006°38'0 0.0
2015-Jul-22 06:28N 43°16' E 006°38'0 0.0
2015-Jul-22 04:16N 43°16' E 006°38'0 0.0
2015-Jul-22 03:28N 43°16' E 006°38'0 0.0
2015-Jul-22 02:22N 43°16' E 006°38'0 0.0
2015-Jul-22 01:28N 43°16' E 006°38'0 0.0
2015-Jul-22 00:28N 43°16' E 006°38'0 0.0
2015-Jul-21 22:22N 43°16' E 006°38'0 0.0
2015-Jul-21 21:22N 43°16' E 006°38'0 0.0
2015-Jul-21 20:25N 43°16' E 006°38'0 0.0
2015-Jul-21 19:28N 43°16' E 006°38'0 0.0
2015-Jul-21 18:20N 43°16' E 006°38'0 0.5
2015-Jul-21 17:19N 43°17' E 006°38'3 3.9
2015-Jul-21 16:33N 43°17' E 006°42'4 1.2
2015-Jul-21 13:29N 43°14' E 006°40'0 0.0
2015-Jul-21 12:32N 43°14' E 006°40'0 0.0
2015-Jul-21 10:05N 43°14' E 006°40'0 0.0
2015-Jul-21 09:29N 43°14' E 006°40'1 0.7
2015-Jul-21 08:32N 43°14' E 006°41'3 2.9
2015-Jul-21 07:32N 43°16' E 006°38'0 0.0
2015-Jul-21 06:33N 43°16' E 006°38'0 0.0
2015-Jul-21 05:24N 43°16' E 006°38'0 0.0
2015-Jul-21 04:30N 43°16' E 006°38'0 0.0
2015-Jul-21 03:33N 43°16' E 006°38'0 0.0
2015-Jul-21 02:09N 43°16' E 006°38'0 0.0
2015-Jul-21 01:30N 43°16' E 006°38'0 0.0
2015-Jul-21 00:06N 43°16' E 006°38'0 0.0
2015-Jul-20 23:18N 43°16' E 006°38'0 0.0
2015-Jul-20 22:30N 43°16' E 006°38'0 0.0
2015-Jul-20 21:30N 43°16' E 006°38'0 0.0
2015-Jul-20 20:15N 43°16' E 006°38'0 0.0
2015-Jul-20 19:30N 43°16' E 006°38'0 0.0
2015-Jul-20 18:27N 43°16' E 006°38'0 0.5
2015-Jul-20 17:33N 43°17' E 006°38'26 4.2
2015-Jul-20 11:29N 43°19' E 007°13'1511.7
2015-Jul-20 10:11N 43°33' E 007°23'  

Dump ship's entire track history